createdAt,value
2019-04-02T00:01:01.333Z,9.60
2019-04-02T00:06:06.159Z,11.00
2019-04-02T00:11:10.928Z,11.57
2019-04-02T00:16:15.743Z,10.37
2019-04-02T00:21:20.564Z,10.90
2019-04-02T00:26:25.407Z,10.73
2019-04-02T00:31:30.243Z,9.63
2019-04-02T00:36:35.079Z,9.67
2019-04-02T00:41:39.919Z,7.50
2019-04-02T00:46:44.824Z,9.27
2019-04-02T00:51:49.648Z,8.17
2019-04-02T00:56:54.486Z,7.47
2019-04-02T01:01:59.383Z,7.87
2019-04-02T01:07:04.906Z,7.27
2019-04-02T01:12:09.829Z,8.07
2019-04-02T01:17:14.656Z,7.40
2019-04-02T01:22:19.414Z,8.17
2019-04-02T01:27:24.236Z,7.13
2019-04-02T01:32:29.064Z,6.50
2019-04-02T01:37:34.441Z,7.30
2019-04-02T01:42:39.442Z,6.70
2019-04-02T01:47:44.746Z,6.37
2019-04-02T01:52:49.793Z,6.50
2019-04-02T01:57:54.627Z,7.23
2019-04-02T02:02:59.966Z,6.63
2019-04-02T02:08:04.799Z,7.30
2019-04-02T02:13:09.544Z,7.87
2019-04-02T02:18:14.387Z,7.13
2019-04-02T02:23:19.154Z,6.87
2019-04-02T02:28:24.340Z,6.33
2019-04-02T02:33:29.177Z,6.10
2019-04-02T02:38:34.008Z,5.70
2019-04-02T02:43:38.833Z,6.07
2019-04-02T02:48:46.350Z,5.77
2019-04-02T02:53:50.997Z,6.03
2019-04-02T02:58:56.010Z,6.23
2019-04-02T03:04:00.936Z,5.87
2019-04-02T03:09:07.573Z,5.83
2019-04-02T03:14:12.393Z,6.03
2019-04-02T03:19:17.237Z,5.30
2019-04-02T03:24:22.067Z,5.00
2019-04-02T03:29:26.964Z,5.73
2019-04-02T03:34:31.847Z,5.90
2019-04-02T03:39:38.470Z,5.63
2019-04-02T03:44:43.809Z,6.47
2019-04-02T03:49:49.082Z,6.03
2019-04-02T03:54:53.857Z,5.70
2019-04-02T03:59:58.680Z,5.93
2019-04-02T04:05:04.669Z,6.03
2019-04-02T04:10:10.507Z,6.00
2019-04-02T04:15:16.435Z,6.20
2019-04-02T04:20:21.409Z,8.20
2019-04-02T04:25:26.806Z,9.60
2019-04-02T04:30:33.084Z,12.40
2019-04-02T04:35:39.811Z,9.83
2019-04-02T04:40:44.395Z,8.77
2019-04-02T04:45:49.226Z,9.10
2019-04-02T04:50:54.102Z,8.40
2019-04-02T04:55:58.921Z,7.07
2019-04-02T05:01:03.758Z,8.43
2019-04-02T05:06:08.585Z,9.37
2019-04-02T05:11:13.338Z,9.00
2019-04-02T05:16:18.171Z,8.07
2019-04-02T05:21:22.922Z,7.60
2019-04-02T05:26:27.676Z,6.90
2019-04-02T05:31:32.641Z,8.90
2019-04-02T05:36:37.455Z,9.57
2019-04-02T05:41:42.388Z,6.97
2019-04-02T05:46:48.510Z,8.47
2019-04-02T05:51:54.295Z,9.90
2019-04-02T05:57:00.117Z,7.03
2019-04-02T06:02:06.017Z,6.33
2019-04-02T06:07:10.841Z,6.70
2019-04-02T06:12:15.611Z,6.13
2019-04-02T06:17:21.246Z,5.70
2019-04-02T06:22:26.954Z,4.60
2019-04-02T06:27:31.795Z,14.43
2019-04-02T06:32:36.637Z,6.60
2019-04-02T06:37:41.478Z,7.43
2019-04-02T06:42:46.315Z,13.30
2019-04-02T06:47:52.728Z,146.80
2019-04-02T06:52:57.699Z,241.17
2019-04-02T06:58:02.642Z,121.27
2019-04-02T07:03:07.531Z,250.70
2019-04-02T07:08:15.366Z,60.07
2019-04-02T07:13:19.068Z,5.47
2019-04-02T07:18:24.455Z,4.60
2019-04-02T07:23:29.304Z,172.03
2019-04-02T07:28:34.162Z,112.30
2019-04-02T07:33:38.917Z,53.77
2019-04-02T07:38:43.745Z,7.67
2019-04-02T07:43:48.586Z,62.23
2019-04-02T07:48:56.399Z,13.77
2019-04-02T07:53:59.896Z,3.50
2019-04-02T07:59:04.939Z,2.37
2019-04-02T08:04:10.104Z,3.67
2019-04-02T08:09:14.928Z,2.77
2019-04-02T08:14:19.767Z,2.37
2019-04-02T08:19:24.594Z,2.27
2019-04-02T08:24:30.479Z,3.13
2019-04-02T08:29:35.864Z,1.83
2019-04-02T08:34:40.686Z,3.90
2019-04-02T08:39:45.506Z,1.70
2019-04-02T08:44:50.639Z,2.10
2019-04-02T08:49:55.555Z,1.87
2019-04-02T08:55:00.394Z,1.87
2019-04-02T09:00:11.725Z,2.10
2019-04-02T09:05:16.568Z,1.77
2019-04-02T09:10:23.560Z,5.57
2019-04-02T09:15:27.914Z,1.23
2019-04-02T09:20:33.833Z,2.20
2019-04-02T09:25:38.945Z,1.67
2019-04-02T09:30:43.814Z,1.57
2019-04-02T09:35:48.664Z,2.00
2019-04-02T09:40:53.815Z,2.03
2019-04-02T09:45:59.163Z,3.93
2019-04-02T09:51:07.392Z,1.53
2019-04-02T09:56:10.655Z,8.37
2019-04-02T10:01:15.685Z,5.00
2019-04-02T10:06:20.540Z,3.10
2019-04-02T10:11:25.451Z,2.90
2019-04-02T10:16:30.289Z,5.30
2019-04-02T10:21:35.691Z,2.83
2019-04-02T10:26:40.554Z,2.70
2019-04-02T10:31:45.381Z,2.70
2019-04-02T10:36:56.153Z,3.40
2019-04-02T10:41:56.666Z,2.63
2019-04-02T10:47:01.581Z,3.53
2019-04-02T10:52:06.422Z,2.67
2019-04-02T10:57:11.254Z,2.37
2019-04-02T11:02:16.096Z,1.80
2019-04-02T11:07:20.930Z,2.03
2019-04-02T11:12:25.758Z,2.83
2019-04-02T11:17:30.597Z,2.50
2019-04-02T11:22:35.510Z,1.77
2019-04-02T11:27:40.341Z,3.07
2019-04-02T11:32:45.173Z,2.30
2019-04-02T11:37:50.005Z,1.90
2019-04-02T11:42:54.883Z,2.67
2019-04-02T11:47:59.793Z,2.57
2019-04-02T11:53:04.619Z,3.20
2019-04-02T11:58:16.629Z,3.10
2019-04-02T12:03:15.905Z,2.80
2019-04-02T12:08:20.745Z,3.23
2019-04-02T12:13:25.569Z,2.97
2019-04-02T12:18:30.409Z,3.30
2019-04-02T12:23:35.355Z,3.57
2019-04-02T12:28:40.182Z,2.77
2019-04-02T12:33:45.041Z,2.80
2019-04-02T12:38:49.873Z,2.57
2019-04-02T12:43:54.985Z,3.70
2019-04-02T12:49:03.494Z,4.77
2019-04-02T12:54:08.056Z,7.13
2019-04-02T12:59:12.890Z,4.40
2019-04-02T13:04:17.738Z,3.63
2019-04-02T13:09:22.572Z,4.20
2019-04-02T13:14:27.407Z,5.23
2019-04-02T13:19:32.247Z,3.30
2019-04-02T13:24:37.563Z,2.63
2019-04-02T13:29:43.625Z,4.60
2019-04-02T13:34:48.546Z,2.93
2019-04-02T13:39:53.860Z,3.10
2019-04-02T13:44:59.203Z,3.53
2019-04-02T13:50:10.878Z,3.40
2019-04-02T13:55:15.721Z,4.13
2019-04-02T14:00:53.946Z,4.27
2019-04-02T14:05:58.792Z,3.00
2019-04-02T14:11:03.634Z,3.30
2019-04-02T14:16:08.941Z,3.17
2019-04-02T14:21:14.680Z,3.63
2019-04-02T14:26:20.305Z,3.50
2019-04-02T14:31:25.140Z,2.60
2019-04-02T14:36:30.033Z,3.27
2019-04-02T14:41:34.881Z,3.20
2019-04-02T14:46:39.708Z,3.10
2019-04-02T14:51:45.388Z,2.50
2019-04-02T14:56:50.219Z,2.63
2019-04-02T15:01:55.206Z,2.70
2019-04-02T15:07:00.047Z,3.97
2019-04-02T15:12:04.889Z,2.60
2019-04-02T15:17:09.721Z,7.50
2019-04-02T15:22:14.550Z,3.63
2019-04-02T15:27:19.306Z,2.53
2019-04-02T15:32:24.240Z,5.63
2019-04-02T15:37:29.078Z,3.10
2019-04-02T15:42:33.957Z,3.23
2019-04-02T15:47:38.792Z,2.20
2019-04-02T15:52:43.627Z,2.53
2019-04-02T15:57:48.456Z,3.13
2019-04-02T16:02:56.024Z,3.07
2019-04-02T16:07:59.744Z,3.13
2019-04-02T16:13:04.583Z,3.07
2019-04-02T16:18:10.852Z,3.17
2019-04-02T16:23:15.874Z,2.93
2019-04-02T16:28:20.772Z,4.77
2019-04-02T16:33:25.685Z,4.30
2019-04-02T16:38:30.517Z,2.77
2019-04-02T16:43:35.356Z,5.77
2019-04-02T16:48:40.185Z,7.70
2019-04-02T16:53:45.400Z,5.30
2019-04-02T16:58:50.227Z,3.90
2019-04-02T17:03:57.010Z,11.17
2019-04-02T17:09:01.616Z,5.50
2019-04-02T17:14:06.449Z,7.47
2019-04-02T17:19:11.292Z,3.43
2019-04-02T17:24:16.134Z,4.20
2019-04-02T17:29:20.973Z,5.97
2019-04-02T17:34:25.918Z,7.90
2019-04-02T17:39:30.920Z,5.33
2019-04-02T17:44:35.812Z,3.63
2019-04-02T17:49:40.646Z,4.03
2019-04-02T17:54:45.914Z,5.17
2019-04-02T17:59:50.749Z,4.10
2019-04-02T18:04:55.576Z,3.97
2019-04-02T18:10:00.409Z,4.47
2019-04-02T18:15:07.144Z,5.40
2019-04-02T18:20:13.944Z,8.00
2019-04-02T18:25:18.492Z,3.87
2019-04-02T18:30:23.329Z,4.43
2019-04-02T18:35:28.215Z,4.53
2019-04-02T18:40:33.533Z,4.30
2019-04-02T18:45:38.360Z,9.00
2019-04-02T18:50:43.223Z,5.50
2019-04-02T18:55:49.436Z,3.53
2019-04-02T19:00:54.271Z,15.43
2019-04-02T19:06:01.099Z,4.57
2019-04-02T19:11:11.711Z,5.60
2019-04-02T19:16:12.517Z,4.57
2019-04-02T19:21:17.268Z,3.10
2019-04-02T19:26:22.378Z,5.27
2019-04-02T19:31:27.210Z,3.63
2019-04-02T19:36:32.147Z,4.17
2019-04-02T19:41:36.983Z,3.73
2019-04-02T19:46:44.098Z,10.23
2019-04-02T19:51:48.572Z,5.67
2019-04-02T19:56:54.316Z,5.33
2019-04-02T20:01:59.955Z,4.30
2019-04-02T20:07:06.722Z,4.47
2019-04-02T20:12:14.672Z,5.53
2019-04-02T20:17:18.450Z,4.63
2019-04-02T20:22:23.285Z,4.57
2019-04-02T20:27:28.150Z,5.23
2019-04-02T20:32:32.944Z,4.20
2019-04-02T20:37:37.865Z,5.17
2019-04-02T20:42:42.693Z,4.13
2019-04-02T20:47:48.914Z,5.37
2019-04-02T20:52:54.156Z,5.80
2019-04-02T20:57:58.987Z,8.67
2019-04-02T21:03:03.819Z,5.40
2019-04-02T21:08:21.426Z,5.40
2019-04-02T21:13:16.891Z,7.20
2019-04-02T21:18:21.757Z,5.47
2019-04-02T21:23:26.578Z,5.60
2019-04-02T21:28:31.473Z,5.53
2019-04-02T21:33:37.898Z,6.67
2019-04-02T21:38:43.170Z,5.20
2019-04-02T21:43:47.999Z,6.30
2019-04-02T21:48:52.834Z,6.57
2019-04-02T21:53:57.734Z,7.10
2019-04-02T21:59:02.553Z,5.07
2019-04-02T22:04:08.510Z,7.67
2019-04-02T22:09:14.878Z,8.17
2019-04-02T22:14:19.705Z,6.47
2019-04-02T22:19:24.550Z,8.63
2019-04-02T22:24:29.436Z,6.53
2019-04-02T22:29:34.269Z,5.97
2019-04-02T22:34:49.000Z,6.00
2019-04-02T22:39:46.034Z,7.80
2019-04-02T22:44:50.882Z,7.17
2019-04-02T22:49:55.761Z,5.40
2019-04-02T22:55:02.345Z,5.80
2019-04-02T23:00:09.463Z,6.37
2019-04-02T23:05:14.327Z,3.63
2019-04-02T23:10:19.237Z,5.60
2019-04-02T23:15:24.121Z,6.67
2019-04-02T23:20:28.988Z,7.43
2019-04-02T23:25:33.821Z,6.43
2019-04-02T23:30:38.664Z,6.27
2019-04-02T23:35:43.478Z,6.30
2019-04-02T23:40:48.519Z,6.63
2019-04-02T23:45:53.362Z,7.03
2019-04-02T23:50:58.193Z,6.57
2019-04-02T23:56:03.581Z,5.70
